Time;durP1;ratioP1;P1;durP2;ratioP2;P2;SDS_P1;SDS_P2;PMS_P1;PMS_P2;Temp;Humidity;BMP_temperature;BMP_pressure;BME280_temperature;BME280_humidity;BME280_pressure;Samples;Min_cycle;Max_cycle;Signal;HPM_P1;HPM_P2
2023/12/10 00:00:36;;;;;;;6.73;2.50;;;5.00;99.90;;;;;;2045608;28;20236;-82
2023/12/10 00:01:37;;;;;;;9.00;2.30;;;5.00;99.90;;;;;;2043471;28;20236;-81
2023/12/10 00:02:37;;;;;;;11.27;2.20;;;5.00;99.90;;;;;;2031188;28;20233;-82
2023/12/10 00:03:38;;;;;;;5.67;2.37;;;5.00;99.90;;;;;;2027725;28;20555;-83
2023/12/10 00:04:39;;;;;;;8.57;2.43;;;5.10;99.90;;;;;;2025094;28;20273;-82
2023/12/10 00:05:39;;;;;;;11.67;1.97;;;5.10;99.90;;;;;;2044611;28;20238;-82
2023/12/10 00:06:40;;;;;;;12.03;2.10;;;5.20;99.90;;;;;;2049948;28;20271;-82
2023/12/10 00:07:41;;;;;;;9.90;2.60;;;5.20;99.90;;;;;;2047236;28;20390;-80
2023/12/10 00:08:43;;;;;;;14.57;2.63;;;5.20;99.90;;;;;;2042741;28;20234;-80
2023/12/10 00:09:43;;;;;;;10.93;2.65;;;5.20;99.90;;;;;;2031959;28;20239;-81
2023/12/10 00:10:45;;;;;;;8.70;2.72;;;5.20;99.90;;;;;;2027657;28;20225;-80
2023/12/10 00:11:45;;;;;;;6.37;1.97;;;5.20;99.90;;;;;;2026505;28;20225;-81
2023/12/10 00:12:46;;;;;;;8.73;2.50;;;5.20;99.90;;;;;;2022448;28;20210;-81
2023/12/10 00:13:47;;;;;;;10.83;3.00;;;5.20;99.90;;;;;;2045822;28;20688;-82
2023/12/10 00:14:53;;;;;;;7.85;2.42;;;5.20;99.90;;;;;;2041093;28;20190;-80
2023/12/10 00:15:54;;;;;;;27.17;2.92;;;5.20;99.90;;;;;;2036207;28;20241;-81
2023/12/10 00:16:55;;;;;;;7.93;3.10;;;5.20;99.90;;;;;;2031896;28;20208;-80
2023/12/10 00:17:56;;;;;;;12.60;2.63;;;5.20;99.90;;;;;;2021348;28;20949;-82
2023/12/10 00:18:57;;;;;;;8.98;2.13;;;5.20;99.90;;;;;;2021888;28;20194;-81
2023/12/10 00:19:58;;;;;;;11.00;2.45;;;5.20;99.90;;;;;;2033711;28;20181;-80
2023/12/10 00:20:59;;;;;;;12.37;2.33;;;5.20;99.90;;;;;;2045085;28;20222;-82
2023/12/10 00:22:00;;;;;;;6.83;2.40;;;5.20;99.90;;;;;;2037735;28;20210;-81
2023/12/10 00:23:00;;;;;;;7.20;2.20;;;5.30;99.90;;;;;;2035002;28;20678;-80
2023/12/10 00:24:01;;;;;;;7.00;2.23;;;5.20;99.90;;;;;;2034897;28;20216;-81
2023/12/10 00:25:02;;;;;;;8.00;2.00;;;5.20;99.90;;;;;;2024118;28;20623;-81
2023/12/10 00:26:03;;;;;;;7.60;2.40;;;5.20;99.90;;;;;;2038475;28;20186;-84
2023/12/10 00:27:04;;;;;;;9.10;2.27;;;5.20;99.90;;;;;;2019633;28;20226;-80
2023/12/10 00:28:04;;;;;;;10.80;2.30;;;5.20;99.90;;;;;;2027092;28;20236;-81
2023/12/10 00:29:05;;;;;;;4.93;2.20;;;5.10;99.90;;;;;;2048781;28;21018;-81
2023/12/10 00:30:07;;;;;;;6.30;2.13;;;5.20;99.90;;;;;;2046714;28;20260;-80
2023/12/10 00:31:09;;;;;;;7.50;2.85;;;5.20;99.90;;;;;;2034335;28;20322;-80
2023/12/10 00:32:09;;;;;;;7.20;2.00;;;5.20;99.90;;;;;;2036203;28;20231;-81
2023/12/10 00:33:12;;;;;;;10.07;2.07;;;5.20;99.90;;;;;;2039680;28;20233;-80
2023/12/10 00:34:12;;;;;;;7.75;1.85;;;5.10;99.90;;;;;;2044166;28;20350;-81
2023/12/10 00:35:13;;;;;;;9.60;2.93;;;5.20;99.90;;;;;;2035029;28;20368;-81
2023/12/10 00:36:15;;;;;;;11.10;3.17;;;5.20;99.90;;;;;;2042940;28;20696;-80
2023/12/10 00:37:16;;;;;;;12.27;2.45;;;5.10;99.90;;;;;;2032971;28;20665;-81
2023/12/10 00:38:16;;;;;;;14.47;3.00;;;5.10;99.90;;;;;;2045859;28;20262;-82
2023/12/10 00:39:17;;;;;;;7.07;2.17;;;5.10;99.90;;;;;;2041960;28;20268;-81
2023/12/10 00:40:18;;;;;;;9.63;2.50;;;5.10;99.90;;;;;;2031390;28;20299;-82
2023/12/10 00:41:19;;;;;;;13.10;3.53;;;5.10;99.90;;;;;;2025524;29;20245;-85
2023/12/10 00:42:20;;;;;;;13.43;3.50;;;5.20;99.90;;;;;;2025525;28;20253;-83
2023/12/10 00:43:20;;;;;;;10.20;2.30;;;5.10;99.90;;;;;;2026174;28;20294;-83
2023/12/10 00:44:22;;;;;;;8.83;2.10;;;5.10;99.90;;;;;;2028880;28;20236;-83
2023/12/10 00:45:23;;;;;;;14.35;3.25;;;5.10;99.90;;;;;;2062201;28;20237;-82
2023/12/10 00:46:24;;;;;;;13.73;3.53;;;5.10;99.90;;;;;;2020018;28;20261;-81
2023/12/10 00:47:25;;;;;;;11.57;2.87;;;5.10;99.90;;;;;;2035130;28;20687;-81
2023/12/10 00:48:25;;;;;;;10.43;2.20;;;5.10;99.90;;;;;;2039721;28;20247;-80
2023/12/10 00:49:26;;;;;;;13.93;3.10;;;5.10;99.90;;;;;;2030710;28;20726;-80
2023/12/10 00:50:27;;;;;;;8.67;2.40;;;5.10;99.90;;;;;;2031788;28;20268;-78
2023/12/10 00:51:28;;;;;;;17.87;3.57;;;5.10;99.90;;;;;;2058198;28;20236;-80
2023/12/10 00:52:29;;;;;;;7.20;2.67;;;5.10;99.90;;;;;;2056336;28;20508;-79
2023/12/10 00:53:29;;;;;;;9.63;2.33;;;5.10;99.90;;;;;;2071091;28;20223;-81
2023/12/10 00:54:32;;;;;;;8.13;1.93;;;5.00;99.90;;;;;;2056174;28;20228;-81
2023/12/10 00:55:33;;;;;;;9.68;3.58;;;5.00;99.90;;;;;;2048941;28;20219;-81
2023/12/10 00:56:34;;;;;;;6.77;2.43;;;5.00;99.90;;;;;;2074531;28;20226;-79
2023/12/10 00:57:35;;;;;;;11.02;2.72;;;5.10;99.90;;;;;;2074098;28;20222;-81
2023/12/10 00:58:35;;;;;;;8.73;2.23;;;5.00;99.90;;;;;;2045526;28;20259;-80
2023/12/10 00:59:36;;;;;;;10.23;2.73;;;5.00;99.90;;;;;;2059114;28;20222;-80
2023/12/10 01:00:37;;;;;;;13.77;2.83;;;4.90;99.90;;;;;;2054165;28;20785;-80
2023/12/10 01:01:37;;;;;;;6.57;2.40;;;5.00;99.90;;;;;;2050082;28;20244;-79
2023/12/10 01:02:38;;;;;;;9.43;2.60;;;4.90;99.90;;;;;;2046155;28;20255;-80
2023/12/10 01:03:39;;;;;;;10.27;2.87;;;5.00;99.90;;;;;;2055811;28;20243;-79
2023/12/10 01:04:40;;;;;;;13.67;3.03;;;5.00;99.90;;;;;;2052072;28;20216;-80
2023/12/10 01:05:42;;;;;;;17.13;3.50;;;5.00;99.90;;;;;;2049374;28;20220;-80
2023/12/10 01:06:42;;;;;;;10.50;2.03;;;5.00;99.90;;;;;;2057194;28;20270;-79
2023/12/10 01:07:43;;;;;;;15.10;2.47;;;5.00;99.90;;;;;;2041990;28;20249;-79
2023/12/10 01:08:44;;;;;;;15.20;2.33;;;5.00;99.90;;;;;;2046751;28;20308;-80
2023/12/10 01:09:44;;;;;;;10.33;2.57;;;5.00;99.90;;;;;;2047991;28;20224;-81
2023/12/10 01:10:45;;;;;;;17.07;2.97;;;4.90;99.90;;;;;;2034313;28;20185;-83
2023/12/10 01:11:46;;;;;;;8.57;2.30;;;5.00;99.90;;;;;;2025347;28;20195;-81
2023/12/10 01:12:46;;;;;;;6.20;2.57;;;5.00;99.90;;;;;;2032548;28;20208;-83
2023/12/10 01:13:47;;;;;;;8.83;2.30;;;5.00;99.90;;;;;;2032841;28;20198;-81
2023/12/10 01:14:49;;;;;;;8.50;2.10;;;5.00;99.90;;;;;;2034692;28;20682;-80
2023/12/10 01:15:54;;;;;;;9.70;2.85;;;4.90;99.90;;;;;;2033329;28;20648;-81
2023/12/10 01:16:55;;;;;;;8.27;2.65;;;5.00;99.90;;;;;;2026961;29;20181;-80
2023/12/10 01:18:03;;;;;;;7.50;2.50;;;4.90;99.90;;;;;;2025319;28;20297;-81
2023/12/10 01:19:04;;;;;;;5.95;2.58;;;5.00;99.90;;;;;;2038772;29;20244;-81
2023/12/10 01:20:05;;;;;;;10.27;3.50;;;5.00;99.90;;;;;;2033667;28;20900;-81
2023/12/10 01:21:09;;;;;;;10.15;2.70;;;5.00;99.90;;;;;;2032860;28;20264;-81
2023/12/10 01:22:10;;;;;;;13.50;2.63;;;5.00;99.90;;;;;;2025419;29;20248;-82
2023/12/10 01:23:11;;;;;;;6.93;2.50;;;5.00;99.90;;;;;;2025719;29;20237;-82
2023/12/10 01:24:20;;;;;;;11.23;2.50;;;4.90;99.90;;;;;;2044560;28;20257;-82
2023/12/10 01:25:20;;;;;;;6.90;2.55;;;4.90;99.90;;;;;;2040400;28;20244;-82
2023/12/10 01:26:22;;;;;;;9.50;2.73;;;4.90;99.90;;;;;;2044543;29;20256;-82
2023/12/10 01:27:23;;;;;;;11.93;2.88;;;4.80;99.90;;;;;;2027186;28;20241;-83
2023/12/10 01:28:23;;;;;;;18.00;4.13;;;4.90;99.90;;;;;;2035984;29;20229;-82
2023/12/10 01:29:25;;;;;;;11.10;2.50;;;4.80;99.90;;;;;;2025085;28;20280;-81
2023/12/10 01:30:26;;;;;;;5.85;2.70;;;4.90;99.90;;;;;;2023430;28;20237;-80
2023/12/10 01:31:34;;;;;;;9.07;3.55;;;4.90;99.90;;;;;;2024430;28;20694;-81
2023/12/10 01:32:34;;;;;;;10.52;2.80;;;4.80;99.90;;;;;;2031335;29;20234;-81
2023/12/10 01:33:35;;;;;;;14.07;3.03;;;4.80;99.90;;;;;;2035900;28;20233;-80
2023/12/10 01:34:37;;;;;;;15.73;3.87;;;4.80;99.90;;;;;;2030250;28;20619;-79
2023/12/10 01:35:37;;;;;;;9.90;2.80;;;4.90;99.90;;;;;;2036460;29;20275;-80
2023/12/10 01:36:38;;;;;;;10.47;3.13;;;4.90;99.90;;;;;;2078613;28;20253;-80
2023/12/10 01:37:39;;;;;;;11.57;2.60;;;4.90;99.90;;;;;;2083264;28;20240;-80
2023/12/10 01:38:39;;;;;;;14.53;3.03;;;4.90;99.90;;;;;;2041198;29;20333;-81
2023/12/10 01:39:40;;;;;;;6.03;2.50;;;4.80;99.90;;;;;;2037420;28;20613;-81
2023/12/10 01:40:41;;;;;;;13.20;3.13;;;4.80;99.90;;;;;;2028924;28;20320;-80
2023/12/10 01:41:41;;;;;;;12.60;2.57;;;4.90;99.90;;;;;;2025160;28;20277;-81
2023/12/10 01:42:46;;;;;;;14.10;2.73;;;4.90;99.90;;;;;;2029474;28;20233;-81
2023/12/10 01:43:47;;;;;;;7.80;2.13;;;4.80;99.90;;;;;;2020092;28;20237;-81
2023/12/10 01:44:48;;;;;;;12.63;2.90;;;4.90;99.90;;;;;;2024380;28;20194;-81
2023/12/10 01:45:52;;;;;;;12.93;3.43;;;4.90;99.90;;;;;;2042625;28;20196;-80
2023/12/10 01:46:57;;;;;;;15.75;2.90;;;4.90;99.90;;;;;;2043153;28;20236;-80
2023/12/10 01:47:59;;;;;;;14.23;3.17;;;4.90;99.90;;;;;;2027936;28;20182;-81
2023/12/10 01:49:00;;;;;;;12.30;2.90;;;4.80;99.90;;;;;;2032066;28;20182;-81
2023/12/10 01:50:05;;;;;;;8.83;2.77;;;4.80;99.90;;;;;;2035520;29;20190;-81
2023/12/10 01:51:08;;;;;;;13.30;3.40;;;4.80;99.90;;;;;;2035215;29;20746;-80
2023/12/10 01:52:08;;;;;;;14.80;3.05;;;4.80;99.90;;;;;;2027050;29;20237;-80
2023/12/10 01:53:09;;;;;;;8.90;2.17;;;4.90;99.90;;;;;;2045330;28;20264;-81
2023/12/10 01:54:21;;;;;;;12.13;2.43;;;4.90;99.90;;;;;;2037918;29;20254;-81
2023/12/10 01:55:22;;;;;;;7.57;2.45;;;4.90;99.90;;;;;;2029825;28;20252;-81
2023/12/10 01:56:23;;;;;;;9.97;2.10;;;4.80;99.90;;;;;;2033583;29;20253;-81
2023/12/10 01:57:27;;;;;;;6.95;2.88;;;4.90;99.90;;;;;;2023992;28;20302;-81
2023/12/10 01:58:28;;;;;;;9.90;2.47;;;4.90;99.90;;;;;;2025420;28;20231;-81
2023/12/10 01:59:29;;;;;;;7.47;3.13;;;4.90;99.90;;;;;;2020320;28;20367;-81
2023/12/10 02:00:32;;;;;;;10.82;3.40;;;5.00;99.90;;;;;;2031024;28;20303;-79
2023/12/10 02:01:34;;;;;;;11.13;2.22;;;5.00;99.90;;;;;;2024383;29;20230;-81
2023/12/10 02:02:36;;;;;;;7.57;1.95;;;5.00;99.90;;;;;;2022053;29;20293;-81
2023/12/10 02:03:37;;;;;;;11.65;2.80;;;4.90;99.90;;;;;;2027939;29;20233;-79
2023/12/10 02:04:39;;;;;;;8.97;1.93;;;4.80;99.90;;;;;;2046980;28;20572;-79
2023/12/10 02:05:41;;;;;;;10.57;1.90;;;4.80;99.90;;;;;;2038528;28;20314;-80
2023/12/10 02:06:43;;;;;;;8.93;2.63;;;4.80;99.90;;;;;;2030849;28;20287;-79
2023/12/10 02:07:43;;;;;;;7.13;1.80;;;4.60;99.90;;;;;;2032237;28;20236;-79
2023/12/10 02:08:44;;;;;;;11.33;2.17;;;4.70;99.90;;;;;;2033372;28;20792;-79
2023/12/10 02:09:45;;;;;;;9.73;2.87;;;4.60;99.90;;;;;;2049831;28;20285;-80
2023/12/10 02:10:46;;;;;;;14.20;2.60;;;4.60;99.90;;;;;;2041354;29;20224;-78
2023/12/10 02:11:46;;;;;;;4.47;2.03;;;4.60;99.90;;;;;;2033542;28;20197;-81
2023/12/10 02:12:51;;;;;;;5.30;1.83;;;4.50;99.90;;;;;;2026344;28;20194;-80
2023/12/10 02:13:52;;;;;;;7.95;2.60;;;4.60;99.90;;;;;;2041682;28;20293;-80
2023/12/10 02:14:54;;;;;;;7.90;2.00;;;4.60;99.90;;;;;;2034101;28;20201;-80
2023/12/10 02:15:55;;;;;;;12.38;2.55;;;4.50;99.90;;;;;;2018873;28;20198;-80
2023/12/10 02:16:56;;;;;;;9.02;2.83;;;4.50;99.90;;;;;;2025880;28;20705;-79
2023/12/10 02:17:57;;;;;;;7.43;2.57;;;4.50;99.90;;;;;;2032534;29;20212;-81
2023/12/10 02:18:57;;;;;;;7.77;2.07;;;4.60;99.90;;;;;;2024950;28;20189;-80
2023/12/10 02:19:58;;;;;;;5.23;2.00;;;4.50;99.90;;;;;;2023059;28;20687;-80
2023/12/10 02:20:59;;;;;;;10.03;2.60;;;4.60;99.90;;;;;;2023564;28;20194;-81
2023/12/10 02:22:01;;;;;;;10.53;2.17;;;4.60;99.90;;;;;;2039652;28;20266;-82
2023/12/10 02:23:12;;;;;;;9.90;2.38;;;4.60;99.90;;;;;;2041229;28;20235;-82
2023/12/10 02:24:20;;;;;;;7.45;2.38;;;4.60;99.90;;;;;;2037078;28;20220;-82
2023/12/10 02:25:39;;;;;;;11.02;2.33;;;4.60;99.90;;;;;;2026350;28;20236;-81
2023/12/10 02:26:40;;;;;;;11.38;1.88;;;4.60;99.90;;;;;;2044087;28;20293;-81
2023/12/10 02:27:41;;;;;;;14.15;2.67;;;4.60;99.90;;;;;;2057008;28;20225;-83
2023/12/10 02:28:43;;;;;;;9.57;2.60;;;4.60;99.90;;;;;;2038214;29;20316;-82
2023/12/10 02:29:44;;;;;;;12.65;2.08;;;4.60;99.90;;;;;;2023973;29;20295;-79
2023/12/10 02:30:45;;;;;;;9.20;2.37;;;4.70;99.90;;;;;;2034132;28;20190;-81
2023/12/10 02:31:45;;;;;;;11.33;2.03;;;4.70;99.90;;;;;;2041577;28;20717;-80
2023/12/10 02:32:46;;;;;;;7.63;1.70;;;4.70;99.90;;;;;;2032746;29;20225;-81
2023/12/10 02:33:47;;;;;;;6.18;2.10;;;4.60;99.90;;;;;;2034814;28;20265;-80
2023/12/10 02:34:48;;;;;;;6.33;2.33;;;4.70;99.90;;;;;;2043707;28;20211;-79
2023/12/10 02:35:48;;;;;;;7.07;1.93;;;4.70;99.90;;;;;;2027620;29;20229;-81
2023/12/10 02:36:49;;;;;;;8.37;1.97;;;4.60;99.90;;;;;;2072018;28;20489;-79
2023/12/10 02:37:50;;;;;;;14.37;2.97;;;4.60;99.90;;;;;;2039551;29;20239;-79
2023/12/10 02:38:51;;;;;;;6.03;2.07;;;4.60;99.90;;;;;;2042429;28;20632;-79
2023/12/10 02:39:52;;;;;;;9.70;2.90;;;4.60;99.90;;;;;;2038743;29;20455;-79
2023/12/10 02:40:52;;;;;;;9.30;1.80;;;4.60;99.90;;;;;;2047036;28;20189;-81
2023/12/10 02:41:53;;;;;;;12.93;2.40;;;4.60;99.90;;;;;;2035866;29;20208;-81
2023/12/10 02:42:54;;;;;;;12.40;2.20;;;4.50;99.90;;;;;;2036548;28;20227;-81
2023/12/10 02:43:54;;;;;;;11.10;1.73;;;4.60;99.90;;;;;;2027334;28;20193;-81
2023/12/10 02:44:55;;;;;;;5.33;1.70;;;4.60;99.90;;;;;;2028662;28;20741;-79
2023/12/10 02:45:56;;;;;;;7.07;1.63;;;4.60;99.90;;;;;;2026926;28;20300;-82
2023/12/10 02:46:56;;;;;;;9.67;2.00;;;4.70;99.90;;;;;;2033979;28;20185;-80
2023/12/10 02:47:57;;;;;;;8.23;2.27;;;4.70;99.90;;;;;;2033287;29;20190;-79
2023/12/10 02:48:58;;;;;;;8.32;2.00;;;4.70;99.90;;;;;;2040491;29;20182;-79
2023/12/10 02:49:59;;;;;;;10.88;3.75;;;4.70;99.90;;;;;;2041235;28;20236;-79
2023/12/10 02:51:00;;;;;;;7.67;2.50;;;4.70;99.90;;;;;;2025673;28;20193;-80
2023/12/10 02:52:00;;;;;;;8.53;2.17;;;4.70;99.90;;;;;;2055552;28;20711;-78
2023/12/10 02:53:01;;;;;;;9.43;1.83;;;4.80;99.90;;;;;;2075372;28;20204;-79
2023/12/10 02:54:02;;;;;;;8.03;2.43;;;4.80;99.90;;;;;;2071209;28;20207;-78
2023/12/10 02:55:08;;;;;;;7.27;2.03;;;4.70;99.90;;;;;;2067060;28;20547;-78
2023/12/10 02:56:09;;;;;;;7.80;2.22;;;4.70;99.90;;;;;;2043612;29;20239;-79
2023/12/10 02:57:10;;;;;;;7.43;2.17;;;4.70;99.90;;;;;;2033588;28;20252;-80
2023/12/10 02:58:10;;;;;;;7.60;1.90;;;4.60;99.90;;;;;;2024022;28;20241;-79
2023/12/10 02:59:11;;;;;;;6.27;2.33;;;4.60;99.90;;;;;;2022268;28;20332;-81
2023/12/10 03:00:14;;;;;;;7.03;2.03;;;4.70;99.90;;;;;;2032087;29;20236;-80
2023/12/10 03:01:15;;;;;;;12.05;3.20;;;4.60;99.90;;;;;;2046411;28;20246;-82
2023/12/10 03:02:15;;;;;;;15.43;3.33;;;4.60;99.90;;;;;;2042819;28;20244;-83
2023/12/10 03:03:16;;;;;;;12.40;2.23;;;4.60;99.90;;;;;;2084620;28;20223;-81
2023/12/10 03:04:17;;;;;;;7.80;1.97;;;4.70;99.90;;;;;;2047542;28;20346;-80
2023/12/10 03:05:17;;;;;;;10.07;2.97;;;4.60;99.90;;;;;;2066694;28;20243;-81
2023/12/10 03:06:18;;;;;;;8.57;2.37;;;4.60;99.90;;;;;;2067097;28;20241;-81
2023/12/10 03:07:19;;;;;;;4.83;1.77;;;4.60;99.90;;;;;;2041992;28;20238;-81
2023/12/10 03:08:20;;;;;;;9.27;2.17;;;4.60;99.90;;;;;;2033248;29;20243;-81
2023/12/10 03:09:20;;;;;;;3.53;1.70;;;4.60;99.90;;;;;;2028339;28;20670;-80
2023/12/10 03:10:21;;;;;;;6.33;2.03;;;4.60;99.90;;;;;;2031664;28;20290;-81
2023/12/10 03:11:22;;;;;;;7.93;2.57;;;4.60;99.90;;;;;;2016337;28;20238;-81
2023/12/10 03:12:22;;;;;;;10.03;2.57;;;4.60;99.90;;;;;;2033088;28;20236;-80
2023/12/10 03:13:23;;;;;;;5.20;1.90;;;4.50;99.90;;;;;;2046112;28;20319;-82
2023/12/10 03:14:24;;;;;;;11.87;2.37;;;4.60;99.90;;;;;;2031019;28;20245;-81
2023/12/10 03:15:25;;;;;;;12.40;3.73;;;4.60;99.90;;;;;;2052862;28;20229;-80
2023/12/10 03:16:25;;;;;;;4.03;1.90;;;4.60;99.90;;;;;;2055303;28;20328;-80
2023/12/10 03:17:26;;;;;;;8.93;1.97;;;4.60;99.90;;;;;;2023623;29;20284;-80
2023/12/10 03:18:29;;;;;;;8.47;2.10;;;4.50;99.90;;;;;;2031206;29;20316;-81
2023/12/10 03:19:30;;;;;;;9.70;1.88;;;4.50;99.90;;;;;;2031706;28;20267;-81
2023/12/10 03:20:30;;;;;;;6.63;1.77;;;4.50;99.90;;;;;;2023406;28;20268;-80
2023/12/10 03:21:31;;;;;;;11.67;3.00;;;4.50;99.90;;;;;;2022282;28;20314;-79
2023/12/10 03:22:32;;;;;;;11.70;1.90;;;4.40;99.90;;;;;;2032270;29;20612;-81
2023/12/10 03:23:32;;;;;;;9.53;2.00;;;4.40;99.90;;;;;;2057225;28;20224;-81
2023/12/10 03:24:33;;;;;;;10.27;2.07;;;4.40;99.90;;;;;;2072229;28;20233;-82
2023/12/10 03:25:34;;;;;;;13.70;2.93;;;4.40;99.90;;;;;;2040290;29;20652;-81
2023/12/10 03:26:34;;;;;;;6.80;2.10;;;4.50;99.90;;;;;;2034500;28;20239;-81
2023/12/10 03:27:35;;;;;;;8.07;2.30;;;4.50;99.90;;;;;;2056468;28;20736;-81
2023/12/10 03:28:36;;;;;;;12.47;3.20;;;4.50;99.90;;;;;;2064568;28;20256;-84
2023/12/10 03:29:38;;;;;;;10.03;2.23;;;4.50;99.90;;;;;;2039717;28;20496;-82
2023/12/10 03:30:38;;;;;;;9.68;2.40;;;4.50;99.90;;;;;;2047307;28;20226;-81
2023/12/10 03:31:39;;;;;;;7.07;1.60;;;4.50;99.90;;;;;;2050736;28;20225;-80
2023/12/10 03:32:40;;;;;;;11.53;2.17;;;4.50;99.90;;;;;;2055863;28;20271;-81
2023/12/10 03:33:41;;;;;;;7.73;2.30;;;4.50;99.90;;;;;;2044900;28;20250;-81
2023/12/10 03:34:41;;;;;;;6.67;2.17;;;4.50;99.90;;;;;;2052880;28;20224;-79
2023/12/10 03:35:42;;;;;;;8.80;2.20;;;4.50;99.90;;;;;;2041508;28;20651;-80
2023/12/10 03:36:43;;;;;;;13.80;2.73;;;4.60;99.90;;;;;;2042655;28;20736;-79
2023/12/10 03:37:43;;;;;;;4.97;2.10;;;4.50;99.90;;;;;;2033947;28;20236;-80
2023/12/10 03:38:46;;;;;;;5.93;2.57;;;4.50;99.90;;;;;;2030214;28;20309;-78
2023/12/10 03:39:47;;;;;;;7.40;1.95;;;4.60;99.90;;;;;;2028617;28;20586;-80
2023/12/10 03:40:48;;;;;;;10.90;2.73;;;4.50;99.90;;;;;;2049413;28;20236;-79
2023/12/10 03:41:49;;;;;;;7.57;2.57;;;4.50;99.90;;;;;;2067791;28;20227;-80
2023/12/10 03:42:50;;;;;;;8.50;2.10;;;4.60;99.90;;;;;;2022589;28;20766;-80
2023/12/10 03:43:51;;;;;;;5.60;1.93;;;4.60;99.90;;;;;;2022630;28;20303;-80
2023/12/10 03:44:51;;;;;;;6.33;2.30;;;4.60;99.90;;;;;;2056621;28;20267;-81
2023/12/10 03:45:52;;;;;;;10.63;2.33;;;4.60;99.90;;;;;;2072025;28;20583;-80
2023/12/10 03:46:53;;;;;;;12.77;2.27;;;4.70;99.90;;;;;;2040032;28;20220;-81
2023/12/10 03:47:54;;;;;;;5.73;1.60;;;4.70;99.90;;;;;;2031470;28;20179;-81
2023/12/10 03:48:54;;;;;;;7.73;2.57;;;4.70;99.90;;;;;;2046359;28;20178;-80
2023/12/10 03:49:55;;;;;;;8.70;3.20;;;4.80;99.90;;;;;;2031951;28;20186;-79
2023/12/10 03:50:56;;;;;;;14.00;2.23;;;4.80;99.90;;;;;;2039960;28;20192;-80
2023/12/10 03:51:57;;;;;;;6.60;2.70;;;4.80;99.90;;;;;;2040277;28;20200;-81
2023/12/10 03:52:58;;;;;;;6.22;1.40;;;4.80;99.90;;;;;;2024227;28;20233;-81
2023/12/10 03:54:00;;;;;;;6.57;2.20;;;4.80;99.90;;;;;;2026869;28;20214;-81
2023/12/10 03:55:01;;;;;;;6.15;2.10;;;4.80;99.90;;;;;;2051205;28;20182;-81
2023/12/10 03:56:01;;;;;;;6.63;2.43;;;4.80;99.90;;;;;;2066857;28;20177;-80
2023/12/10 03:57:02;;;;;;;12.67;2.47;;;4.80;99.90;;;;;;2049612;28;20188;-81
2023/12/10 03:58:03;;;;;;;4.60;1.67;;;4.80;99.90;;;;;;2041175;28;20195;-80
2023/12/10 03:59:04;;;;;;;7.37;2.17;;;4.80;99.90;;;;;;2064377;28;20273;-80
2023/12/10 04:00:06;;;;;;;9.73;2.37;;;4.80;99.90;;;;;;2038976;28;21018;-81
2023/12/10 04:01:07;;;;;;;6.70;1.60;;;4.80;99.90;;;;;;2039103;28;20267;-80
2023/12/10 04:02:07;;;;;;;7.03;1.80;;;4.80;99.90;;;;;;2039142;28;20317;-79
2023/12/10 04:03:08;;;;;;;10.63;2.80;;;4.80;99.90;;;;;;2026011;28;21081;-80
2023/12/10 04:04:12;;;;;;;5.53;2.10;;;4.80;99.90;;;;;;2033621;28;20232;-82
2023/12/10 04:05:13;;;;;;;10.85;2.40;;;4.80;99.90;;;;;;2034137;29;20311;-81
2023/12/10 04:06:13;;;;;;;8.60;1.60;;;4.80;99.90;;;;;;2051155;28;20960;-81
2023/12/10 04:07:14;;;;;;;11.30;2.60;;;4.80;99.90;;;;;;2041785;28;20232;-81
2023/12/10 04:08:15;;;;;;;7.73;2.70;;;4.80;99.90;;;;;;2042281;28;20233;-81
2023/12/10 04:09:15;;;;;;;11.03;1.90;;;4.90;99.90;;;;;;2040622;28;20887;-81
2023/12/10 04:10:16;;;;;;;8.87;2.17;;;4.90;99.90;;;;;;2061263;28;20229;-80
2023/12/10 04:11:24;;;;;;;8.00;1.90;;;4.90;99.90;;;;;;2040190;28;20225;-81
2023/12/10 04:12:24;;;;;;;7.25;1.77;;;4.90;99.90;;;;;;2040625;28;20283;-81
2023/12/10 04:13:25;;;;;;;8.63;2.27;;;4.90;99.90;;;;;;2031346;28;20235;-80
2023/12/10 04:14:26;;;;;;;8.20;2.13;;;4.90;99.90;;;;;;2038235;28;20245;-80
2023/12/10 04:15:27;;;;;;;8.60;2.03;;;4.90;99.90;;;;;;2041309;28;20292;-81
2023/12/10 04:16:31;;;;;;;6.10;1.60;;;4.90;99.90;;;;;;2045419;28;20236;-81
2023/12/10 04:17:31;;;;;;;8.75;1.92;;;4.90;99.90;;;;;;2044966;28;20228;-81
2023/12/10 04:18:32;;;;;;;10.53;2.50;;;4.90;99.90;;;;;;2044409;28;20232;-81
2023/12/10 04:19:33;;;;;;;8.10;2.10;;;4.90;99.90;;;;;;2031941;28;20233;-82
2023/12/10 04:20:33;;;;;;;5.87;1.90;;;5.00;99.90;;;;;;2026976;28;21037;-82
2023/12/10 04:21:34;;;;;;;6.80;2.37;;;5.00;99.90;;;;;;2025922;28;20316;-81
2023/12/10 04:22:34;;;;;;;13.77;2.07;;;4.90;99.90;;;;;;2031653;28;20217;-81
2023/12/10 04:23:38;;;;;;;6.53;2.77;;;5.00;99.90;;;;;;2032357;28;20688;-81
2023/12/10 04:24:39;;;;;;;5.90;2.20;;;4.90;99.90;;;;;;2031278;28;20596;-81
2023/12/10 04:25:39;;;;;;;6.50;1.80;;;4.90;99.90;;;;;;2033271;28;20244;-81
2023/12/10 04:26:40;;;;;;;7.87;2.07;;;4.90;99.90;;;;;;2059805;28;20308;-81
2023/12/10 04:27:41;;;;;;;9.47;2.83;;;4.80;99.90;;;;;;2049636;28;20726;-81
2023/12/10 04:28:42;;;;;;;12.23;2.07;;;4.80;99.90;;;;;;2058222;28;20698;-81
2023/12/10 04:29:43;;;;;;;7.15;2.20;;;4.80;99.90;;;;;;2051361;28;20228;-82
2023/12/10 04:30:44;;;;;;;11.13;2.17;;;4.80;99.90;;;;;;2066820;28;20669;-81
2023/12/10 04:31:45;;;;;;;6.20;1.90;;;4.70;99.90;;;;;;2072027;28;20186;-80
2023/12/10 04:32:46;;;;;;;9.48;1.50;;;4.70;99.90;;;;;;2047152;28;20275;-80
2023/12/10 04:33:47;;;;;;;5.38;2.05;;;4.70;99.90;;;;;;2045463;28;20260;-81
2023/12/10 04:34:48;;;;;;;6.70;2.53;;;4.70;99.90;;;;;;2038415;28;20202;-81
2023/12/10 04:35:49;;;;;;;7.53;2.03;;;4.70;99.90;;;;;;2037661;28;20219;-81
2023/12/10 04:36:49;;;;;;;6.67;1.53;;;4.80;99.90;;;;;;2052542;28;20284;-81
2023/12/10 04:37:50;;;;;;;9.83;1.77;;;4.70;99.90;;;;;;2051813;28;20745;-81
2023/12/10 04:38:51;;;;;;;8.87;1.93;;;4.70;99.90;;;;;;2047321;28;20213;-81
2023/12/10 04:39:53;;;;;;;8.33;2.00;;;4.80;99.90;;;;;;2040826;28;20292;-81
2023/12/10 04:40:54;;;;;;;11.25;2.67;;;4.70;99.90;;;;;;2041338;28;20274;-81
2023/12/10 04:41:55;;;;;;;6.37;2.00;;;4.80;99.90;;;;;;2038927;28;20209;-81
2023/12/10 04:42:55;;;;;;;8.83;2.33;;;4.80;99.90;;;;;;2039598;28;20244;-81
2023/12/10 04:43:56;;;;;;;6.40;1.50;;;4.70;99.90;;;;;;2022518;28;20224;-81
2023/12/10 04:44:57;;;;;;;6.67;2.27;;;4.80;99.90;;;;;;2028582;28;20590;-81
2023/12/10 04:45:58;;;;;;;10.17;1.87;;;4.80;99.90;;;;;;2036737;28;20185;-81
2023/12/10 04:46:59;;;;;;;8.02;1.73;;;4.80;99.90;;;;;;2047784;28;20261;-81
2023/12/10 04:48:01;;;;;;;10.27;1.73;;;4.70;99.90;;;;;;2034984;28;20179;-81
2023/12/10 04:49:01;;;;;;;9.32;1.63;;;4.70;99.90;;;;;;2026159;28;20237;-81
2023/12/10 04:50:03;;;;;;;6.03;1.70;;;4.70;99.90;;;;;;2025883;28;20241;-81
2023/12/10 04:51:04;;;;;;;10.30;2.30;;;4.70;99.90;;;;;;2033102;28;20220;-81
2023/12/10 04:52:05;;;;;;;5.18;1.52;;;4.70;99.90;;;;;;2030012;28;20286;-81
2023/12/10 04:53:07;;;;;;;6.07;1.80;;;4.70;99.90;;;;;;2059402;28;20251;-80
2023/12/10 04:54:08;;;;;;;8.23;2.58;;;4.70;99.90;;;;;;2060318;28;20242;-81
2023/12/10 04:55:08;;;;;;;7.17;1.90;;;4.70;99.90;;;;;;2031620;28;20232;-80
2023/12/10 04:56:10;;;;;;;6.70;1.90;;;4.60;99.90;;;;;;2029268;28;20705;-80
2023/12/10 04:57:10;;;;;;;7.45;1.85;;;4.60;99.90;;;;;;2043797;28;20242;-80
2023/12/10 04:58:11;;;;;;;5.73;1.63;;;4.60;99.90;;;;;;2049970;28;20232;-80
2023/12/10 04:59:12;;;;;;;2.83;1.63;;;4.60;99.90;;;;;;2057813;28;20262;-83
2023/12/10 05:00:13;;;;;;;5.33;1.60;;;4.70;99.90;;;;;;2040923;28;20226;-80
2023/12/10 05:01:15;;;;;;;9.20;1.55;;;4.70;99.90;;;;;;2040480;28;20229;-80
2023/12/10 05:02:15;;;;;;;6.40;1.83;;;4.70;99.90;;;;;;2039912;28;20720;-80
2023/12/10 05:03:16;;;;;;;8.37;2.50;;;4.70;99.90;;;;;;2043316;28;20227;-80
2023/12/10 05:04:17;;;;;;;3.90;1.73;;;4.80;99.90;;;;;;2029825;28;20781;-80
2023/12/10 05:05:18;;;;;;;6.25;1.65;;;4.80;99.90;;;;;;2036940;28;20722;-80
2023/12/10 05:06:19;;;;;;;11.50;1.97;;;4.70;99.90;;;;;;2045729;28;20233;-79
2023/12/10 05:07:20;;;;;;;8.73;2.27;;;4.70;99.90;;;;;;2032657;29;20233;-80
2023/12/10 05:08:20;;;;;;;3.83;1.60;;;4.70;99.90;;;;;;2026355;28;20708;-79
2023/12/10 05:09:21;;;;;;;9.37;2.50;;;4.70;99.90;;;;;;2041618;28;20236;-79
2023/12/10 05:10:22;;;;;;;7.20;1.83;;;4.60;99.90;;;;;;2054531;28;20236;-80
2023/12/10 05:11:23;;;;;;;10.03;2.93;;;4.70;99.90;;;;;;2044314;28;20246;-78
2023/12/10 05:12:23;;;;;;;9.77;2.20;;;4.60;99.90;;;;;;2048295;28;20299;-80
2023/12/10 05:13:24;;;;;;;6.73;1.97;;;4.60;99.90;;;;;;2035599;28;20241;-80
2023/12/10 05:14:25;;;;;;;3.03;1.60;;;4.60;99.90;;;;;;2044137;28;20238;-81
2023/12/10 05:15:25;;;;;;;7.37;1.77;;;4.60;99.90;;;;;;2023113;28;20270;-82
2023/12/10 05:16:26;;;;;;;4.53;1.50;;;4.50;99.90;;;;;;2029170;28;20256;-81
2023/12/10 05:17:27;;;;;;;6.07;1.87;;;4.50;99.90;;;;;;2037079;28;20280;-82
2023/12/10 05:18:28;;;;;;;3.97;1.67;;;4.50;99.90;;;;;;2029321;28;20733;-80
2023/12/10 05:19:28;;;;;;;9.67;2.23;;;4.60;99.90;;;;;;2024236;29;20321;-80
2023/12/10 05:20:30;;;;;;;5.40;1.53;;;4.60;99.90;;;;;;2048447;28;20349;-80
2023/12/10 05:21:33;;;;;;;7.68;1.48;;;4.60;99.90;;;;;;2035495;28;20256;-81